sensor_id;sensor_type;location;lat;lon;timestamp;P1;durP1;ratioP1;P2;durP2;ratioP2
40591;SDS011;26301;42.832;23.918;2024-02-14T00:01:00;1.73;;;1.00;;
40591;SDS011;26301;42.832;23.918;2024-02-14T00:03:26;1.60;;;0.97;;
40591;SDS011;26301;42.832;23.918;2024-02-14T00:05:52;1.52;;;0.82;;
40591;SDS011;26301;42.832;23.918;2024-02-14T00:08:17;0.87;;;0.70;;
40591;SDS011;26301;42.832;23.918;2024-02-14T00:10:43;1.30;;;0.53;;
40591;SDS011;26301;42.832;23.918;2024-02-14T00:13:10;1.02;;;0.70;;
40591;SDS011;26301;42.832;23.918;2024-02-14T00:15:35;1.07;;;0.73;;
40591;SDS011;26301;42.832;23.918;2024-02-14T00:18:01;1.63;;;1.10;;
40591;SDS011;26301;42.832;23.918;2024-02-14T00:20:27;1.13;;;1.00;;
40591;SDS011;26301;42.832;23.918;2024-02-14T00:22:53;2.17;;;1.40;;
40591;SDS011;26301;42.832;23.918;2024-02-14T00:25:18;2.63;;;1.90;;
40591;SDS011;26301;42.832;23.918;2024-02-14T00:27:44;3.00;;;1.90;;
40591;SDS011;26301;42.832;23.918;2024-02-14T00:30:09;3.20;;;2.10;;
40591;SDS011;26301;42.832;23.918;2024-02-14T00:32:35;2.53;;;1.40;;
40591;SDS011;26301;42.832;23.918;2024-02-14T00:35:01;2.17;;;1.60;;
40591;SDS011;26301;42.832;23.918;2024-02-14T00:37:27;3.73;;;2.20;;
40591;SDS011;26301;42.832;23.918;2024-02-14T00:39:53;5.38;;;2.00;;
40591;SDS011;26301;42.832;23.918;2024-02-14T00:42:20;3.27;;;1.87;;
40591;SDS011;26301;42.832;23.918;2024-02-14T00:44:47;2.67;;;1.67;;
40591;SDS011;26301;42.832;23.918;2024-02-14T00:47:12;5.63;;;2.05;;
40591;SDS011;26301;42.832;23.918;2024-02-14T00:49:37;3.37;;;1.60;;
40591;SDS011;26301;42.832;23.918;2024-02-14T00:52:04;2.67;;;1.90;;
40591;SDS011;26301;42.832;23.918;2024-02-14T00:54:30;2.60;;;1.80;;
40591;SDS011;26301;42.832;23.918;2024-02-14T00:56:55;2.60;;;1.70;;
40591;SDS011;26301;42.832;23.918;2024-02-14T00:59:20;3.17;;;1.63;;
40591;SDS011;26301;42.832;23.918;2024-02-14T01:01:46;2.20;;;1.63;;
40591;SDS011;26301;42.832;23.918;2024-02-14T01:04:11;3.03;;;1.60;;
40591;SDS011;26301;42.832;23.918;2024-02-14T01:06:37;2.80;;;1.80;;
40591;SDS011;26301;42.832;23.918;2024-02-14T01:09:02;3.63;;;2.20;;
40591;SDS011;26301;42.832;23.918;2024-02-14T01:11:28;2.50;;;1.90;;
40591;SDS011;26301;42.832;23.918;2024-02-14T01:13:54;2.23;;;1.63;;
40591;SDS011;26301;42.832;23.918;2024-02-14T01:16:19;3.03;;;2.13;;
40591;SDS011;26301;42.832;23.918;2024-02-14T01:18:45;3.60;;;1.90;;
40591;SDS011;26301;42.832;23.918;2024-02-14T01:21:10;4.13;;;2.60;;
40591;SDS011;26301;42.832;23.918;2024-02-14T01:23:35;2.75;;;1.70;;
40591;SDS011;26301;42.832;23.918;2024-02-14T01:26:01;3.53;;;2.20;;
40591;SDS011;26301;42.832;23.918;2024-02-14T01:28:27;4.00;;;1.97;;
40591;SDS011;26301;42.832;23.918;2024-02-14T01:30:53;3.13;;;2.00;;
40591;SDS011;26301;42.832;23.918;2024-02-14T01:33:18;2.87;;;1.93;;
40591;SDS011;26301;42.832;23.918;2024-02-14T01:35:44;3.97;;;1.97;;
40591;SDS011;26301;42.832;23.918;2024-02-14T01:38:09;3.70;;;2.17;;
40591;SDS011;26301;42.832;23.918;2024-02-14T01:40:37;2.60;;;1.70;;
40591;SDS011;26301;42.832;23.918;2024-02-14T01:43:02;4.00;;;2.20;;
40591;SDS011;26301;42.832;23.918;2024-02-14T01:45:28;2.57;;;1.93;;
40591;SDS011;26301;42.832;23.918;2024-02-14T01:47:54;3.10;;;1.90;;
40591;SDS011;26301;42.832;23.918;2024-02-14T01:50:20;3.80;;;2.40;;
40591;SDS011;26301;42.832;23.918;2024-02-14T01:52:54;4.03;;;2.10;;
40591;SDS011;26301;42.832;23.918;2024-02-14T01:55:24;2.50;;;1.67;;
40591;SDS011;26301;42.832;23.918;2024-02-14T01:57:51;3.33;;;2.00;;
40591;SDS011;26301;42.832;23.918;2024-02-14T02:00:17;3.23;;;2.10;;
40591;SDS011;26301;42.832;23.918;2024-02-14T02:02:43;3.37;;;2.03;;
40591;SDS011;26301;42.832;23.918;2024-02-14T02:05:09;2.70;;;1.90;;
40591;SDS011;26301;42.832;23.918;2024-02-14T02:07:34;3.93;;;2.20;;
40591;SDS011;26301;42.832;23.918;2024-02-14T02:10:01;3.20;;;2.20;;
40591;SDS011;26301;42.832;23.918;2024-02-14T02:12:29;2.87;;;1.90;;
40591;SDS011;26301;42.832;23.918;2024-02-14T02:14:54;2.80;;;1.90;;
40591;SDS011;26301;42.832;23.918;2024-02-14T02:17:20;3.10;;;1.90;;
40591;SDS011;26301;42.832;23.918;2024-02-14T02:19:46;2.93;;;1.80;;
40591;SDS011;26301;42.832;23.918;2024-02-14T02:22:11;4.10;;;2.27;;
40591;SDS011;26301;42.832;23.918;2024-02-14T02:24:37;2.87;;;1.57;;
40591;SDS011;26301;42.832;23.918;2024-02-14T02:27:03;2.20;;;1.60;;
40591;SDS011;26301;42.832;23.918;2024-02-14T02:29:29;3.00;;;1.92;;
40591;SDS011;26301;42.832;23.918;2024-02-14T02:31:57;2.70;;;1.58;;
40591;SDS011;26301;42.832;23.918;2024-02-14T02:34:23;2.60;;;1.77;;
40591;SDS011;26301;42.832;23.918;2024-02-14T02:36:48;3.07;;;1.90;;
40591;SDS011;26301;42.832;23.918;2024-02-14T02:39:16;2.20;;;1.53;;
40591;SDS011;26301;42.832;23.918;2024-02-14T02:41:41;2.53;;;1.60;;
40591;SDS011;26301;42.832;23.918;2024-02-14T02:44:07;4.23;;;2.20;;
40591;SDS011;26301;42.832;23.918;2024-02-14T02:46:32;3.80;;;2.10;;
40591;SDS011;26301;42.832;23.918;2024-02-14T02:48:58;5.10;;;2.53;;
40591;SDS011;26301;42.832;23.918;2024-02-14T02:51:23;3.10;;;2.10;;
40591;SDS011;26301;42.832;23.918;2024-02-14T02:53:49;4.00;;;2.57;;
40591;SDS011;26301;42.832;23.918;2024-02-14T02:56:17;3.83;;;1.93;;
40591;SDS011;26301;42.832;23.918;2024-02-14T02:58:43;3.47;;;2.40;;
40591;SDS011;26301;42.832;23.918;2024-02-14T03:01:09;3.60;;;2.20;;
40591;SDS011;26301;42.832;23.918;2024-02-14T03:03:36;3.57;;;2.10;;
40591;SDS011;26301;42.832;23.918;2024-02-14T03:06:03;3.40;;;2.30;;
40591;SDS011;26301;42.832;23.918;2024-02-14T03:08:30;3.37;;;1.90;;
40591;SDS011;26301;42.832;23.918;2024-02-14T03:10:56;3.17;;;1.80;;
40591;SDS011;26301;42.832;23.918;2024-02-14T03:13:24;3.37;;;1.93;;
40591;SDS011;26301;42.832;23.918;2024-02-14T03:15:51;2.97;;;1.90;;
40591;SDS011;26301;42.832;23.918;2024-02-14T03:18:17;3.43;;;2.30;;
40591;SDS011;26301;42.832;23.918;2024-02-14T03:20:43;3.50;;;2.10;;
40591;SDS011;26301;42.832;23.918;2024-02-14T03:23:08;3.13;;;2.10;;
40591;SDS011;26301;42.832;23.918;2024-02-14T03:25:34;3.20;;;2.30;;
40591;SDS011;26301;42.832;23.918;2024-02-14T03:28:01;3.37;;;2.30;;
40591;SDS011;26301;42.832;23.918;2024-02-14T03:30:32;6.87;;;2.33;;
40591;SDS011;26301;42.832;23.918;2024-02-14T03:32:58;3.87;;;2.27;;
40591;SDS011;26301;42.832;23.918;2024-02-14T03:35:24;3.33;;;2.30;;
40591;SDS011;26301;42.832;23.918;2024-02-14T03:37:52;4.80;;;2.70;;
40591;SDS011;26301;42.832;23.918;2024-02-14T03:40:18;3.87;;;2.23;;
40591;SDS011;26301;42.832;23.918;2024-02-14T03:42:45;3.10;;;2.17;;
40591;SDS011;26301;42.832;23.918;2024-02-14T03:45:11;3.27;;;2.40;;
40591;SDS011;26301;42.832;23.918;2024-02-14T03:47:36;3.60;;;2.13;;
40591;SDS011;26301;42.832;23.918;2024-02-14T03:50:06;2.57;;;1.77;;
40591;SDS011;26301;42.832;23.918;2024-02-14T03:52:32;3.47;;;1.90;;
40591;SDS011;26301;42.832;23.918;2024-02-14T03:55:01;2.72;;;2.13;;
40591;SDS011;26301;42.832;23.918;2024-02-14T03:57:27;3.57;;;2.20;;
40591;SDS011;26301;42.832;23.918;2024-02-14T03:59:59;3.70;;;2.47;;
40591;SDS011;26301;42.832;23.918;2024-02-14T04:02:28;4.60;;;2.73;;
40591;SDS011;26301;42.832;23.918;2024-02-14T04:04:54;3.67;;;2.50;;
40591;SDS011;26301;42.832;23.918;2024-02-14T04:07:19;3.47;;;2.40;;
40591;SDS011;26301;42.832;23.918;2024-02-14T04:09:44;4.53;;;3.00;;
40591;SDS011;26301;42.832;23.918;2024-02-14T04:12:10;4.18;;;2.72;;
40591;SDS011;26301;42.832;23.918;2024-02-14T04:14:36;5.47;;;2.73;;
40591;SDS011;26301;42.832;23.918;2024-02-14T04:17:03;4.07;;;2.53;;
40591;SDS011;26301;42.832;23.918;2024-02-14T04:19:29;3.27;;;2.30;;
40591;SDS011;26301;42.832;23.918;2024-02-14T04:21:55;4.00;;;2.40;;
40591;SDS011;26301;42.832;23.918;2024-02-14T04:24:20;6.13;;;2.80;;
40591;SDS011;26301;42.832;23.918;2024-02-14T04:26:46;3.60;;;2.63;;
40591;SDS011;26301;42.832;23.918;2024-02-14T04:29:14;4.00;;;2.60;;
40591;SDS011;26301;42.832;23.918;2024-02-14T04:31:39;3.90;;;2.73;;
40591;SDS011;26301;42.832;23.918;2024-02-14T04:34:04;4.50;;;2.97;;
40591;SDS011;26301;42.832;23.918;2024-02-14T04:36:32;5.63;;;2.50;;
40591;SDS011;26301;42.832;23.918;2024-02-14T04:39:00;5.88;;;2.95;;
40591;SDS011;26301;42.832;23.918;2024-02-14T04:41:25;4.97;;;3.03;;
40591;SDS011;26301;42.832;23.918;2024-02-14T04:43:51;4.30;;;2.73;;
40591;SDS011;26301;42.832;23.918;2024-02-14T04:46:16;7.70;;;3.67;;
40591;SDS011;26301;42.832;23.918;2024-02-14T04:48:42;5.23;;;3.30;;
40591;SDS011;26301;42.832;23.918;2024-02-14T04:51:07;7.77;;;5.43;;
40591;SDS011;26301;42.832;23.918;2024-02-14T04:53:33;3.33;;;2.17;;
40591;SDS011;26301;42.832;23.918;2024-02-14T04:55:59;5.13;;;3.13;;
40591;SDS011;26301;42.832;23.918;2024-02-14T04:58:24;4.20;;;2.87;;
40591;SDS011;26301;42.832;23.918;2024-02-14T05:00:52;5.00;;;3.22;;
40591;SDS011;26301;42.832;23.918;2024-02-14T05:03:18;4.63;;;3.30;;
40591;SDS011;26301;42.832;23.918;2024-02-14T05:05:43;3.90;;;2.53;;
40591;SDS011;26301;42.832;23.918;2024-02-14T05:08:09;4.43;;;2.63;;
40591;SDS011;26301;42.832;23.918;2024-02-14T05:10:34;6.40;;;3.57;;
40591;SDS011;26301;42.832;23.918;2024-02-14T05:13:00;5.83;;;3.53;;
40591;SDS011;26301;42.832;23.918;2024-02-14T05:15:26;5.33;;;3.70;;
40591;SDS011;26301;42.832;23.918;2024-02-14T05:17:52;7.13;;;3.83;;
40591;SDS011;26301;42.832;23.918;2024-02-14T05:20:17;5.97;;;4.03;;
40591;SDS011;26301;42.832;23.918;2024-02-14T05:22:43;6.83;;;3.77;;
40591;SDS011;26301;42.832;23.918;2024-02-14T05:25:08;5.18;;;3.58;;
40591;SDS011;26301;42.832;23.918;2024-02-14T05:27:37;4.80;;;3.43;;
40591;SDS011;26301;42.832;23.918;2024-02-14T05:30:03;5.00;;;3.10;;
40591;SDS011;26301;42.832;23.918;2024-02-14T05:32:34;5.27;;;3.63;;
40591;SDS011;26301;42.832;23.918;2024-02-14T05:35:00;4.70;;;3.20;;
40591;SDS011;26301;42.832;23.918;2024-02-14T05:37:26;5.77;;;3.67;;
40591;SDS011;26301;42.832;23.918;2024-02-14T05:39:54;6.40;;;3.60;;
40591;SDS011;26301;42.832;23.918;2024-02-14T05:42:20;5.87;;;3.67;;
40591;SDS011;26301;42.832;23.918;2024-02-14T05:44:46;5.83;;;3.80;;
40591;SDS011;26301;42.832;23.918;2024-02-14T05:47:12;5.93;;;4.23;;
40591;SDS011;26301;42.832;23.918;2024-02-14T05:49:38;5.93;;;3.58;;
40591;SDS011;26301;42.832;23.918;2024-02-14T05:52:05;10.07;;;5.87;;
40591;SDS011;26301;42.832;23.918;2024-02-14T05:54:34;6.17;;;4.10;;
40591;SDS011;26301;42.832;23.918;2024-02-14T05:57:00;8.27;;;3.87;;
40591;SDS011;26301;42.832;23.918;2024-02-14T05:59:29;5.78;;;3.67;;
40591;SDS011;26301;42.832;23.918;2024-02-14T06:01:55;4.87;;;3.33;;
40591;SDS011;26301;42.832;23.918;2024-02-14T06:04:21;5.40;;;3.42;;
40591;SDS011;26301;42.832;23.918;2024-02-14T06:06:46;4.57;;;3.65;;
40591;SDS011;26301;42.832;23.918;2024-02-14T06:09:12;6.07;;;3.53;;
40591;SDS011;26301;42.832;23.918;2024-02-14T06:11:37;5.38;;;3.63;;
40591;SDS011;26301;42.832;23.918;2024-02-14T06:14:07;7.70;;;4.50;;
40591;SDS011;26301;42.832;23.918;2024-02-14T06:16:33;5.03;;;4.00;;
40591;SDS011;26301;42.832;23.918;2024-02-14T06:18:59;8.40;;;4.38;;
40591;SDS011;26301;42.832;23.918;2024-02-14T06:21:25;6.30;;;4.65;;
40591;SDS011;26301;42.832;23.918;2024-02-14T06:23:51;6.45;;;4.40;;
40591;SDS011;26301;42.832;23.918;2024-02-14T06:26:17;5.43;;;4.00;;
40591;SDS011;26301;42.832;23.918;2024-02-14T06:28:43;6.40;;;4.00;;
40591;SDS011;26301;42.832;23.918;2024-02-14T06:31:09;7.40;;;3.97;;
40591;SDS011;26301;42.832;23.918;2024-02-14T06:33:35;5.40;;;3.70;;
40591;SDS011;26301;42.832;23.918;2024-02-14T06:36:00;6.60;;;3.97;;
40591;SDS011;26301;42.832;23.918;2024-02-14T06:38:26;5.50;;;4.00;;
40591;SDS011;26301;42.832;23.918;2024-02-14T06:40:51;5.80;;;4.03;;
40591;SDS011;26301;42.832;23.918;2024-02-14T06:43:17;7.20;;;4.30;;
40591;SDS011;26301;42.832;23.918;2024-02-14T06:45:42;7.20;;;4.00;;
40591;SDS011;26301;42.832;23.918;2024-02-14T06:48:08;6.38;;;4.03;;
40591;SDS011;26301;42.832;23.918;2024-02-14T06:50:34;6.35;;;4.20;;
40591;SDS011;26301;42.832;23.918;2024-02-14T06:52:59;8.48;;;4.20;;
40591;SDS011;26301;42.832;23.918;2024-02-14T06:55:28;6.30;;;4.13;;
40591;SDS011;26301;42.832;23.918;2024-02-14T06:57:57;5.63;;;4.10;;
40591;SDS011;26301;42.832;23.918;2024-02-14T07:00:23;6.93;;;4.05;;
40591;SDS011;26301;42.832;23.918;2024-02-14T07:02:48;6.70;;;4.40;;
40591;SDS011;26301;42.832;23.918;2024-02-14T07:05:14;7.78;;;5.68;;
40591;SDS011;26301;42.832;23.918;2024-02-14T07:07:40;6.25;;;4.05;;
40591;SDS011;26301;42.832;23.918;2024-02-14T07:10:06;6.68;;;4.57;;
40591;SDS011;26301;42.832;23.918;2024-02-14T07:12:32;6.85;;;4.82;;
40591;SDS011;26301;42.832;23.918;2024-02-14T07:14:58;8.25;;;4.95;;
40591;SDS011;26301;42.832;23.918;2024-02-14T07:17:23;7.95;;;4.57;;
40591;SDS011;26301;42.832;23.918;2024-02-14T07:19:49;6.32;;;4.22;;
40591;SDS011;26301;42.832;23.918;2024-02-14T07:22:17;6.22;;;4.40;;
40591;SDS011;26301;42.832;23.918;2024-02-14T07:24:44;7.30;;;5.05;;
40591;SDS011;26301;42.832;23.918;2024-02-14T07:27:11;6.13;;;4.25;;
40591;SDS011;26301;42.832;23.918;2024-02-14T07:29:37;6.85;;;4.68;;
40591;SDS011;26301;42.832;23.918;2024-02-14T07:32:03;6.97;;;5.00;;
40591;SDS011;26301;42.832;23.918;2024-02-14T07:34:29;7.18;;;4.63;;
40591;SDS011;26301;42.832;23.918;2024-02-14T07:36:54;6.38;;;4.32;;
40591;SDS011;26301;42.832;23.918;2024-02-14T07:39:20;7.07;;;4.72;;
40591;SDS011;26301;42.832;23.918;2024-02-14T07:41:45;7.88;;;5.47;;
40591;SDS011;26301;42.832;23.918;2024-02-14T07:44:11;8.32;;;5.95;;
40591;SDS011;26301;42.832;23.918;2024-02-14T07:46:38;8.37;;;5.90;;
40591;SDS011;26301;42.832;23.918;2024-02-14T07:49:03;6.25;;;4.57;;
40591;SDS011;26301;42.832;23.918;2024-02-14T07:51:30;8.27;;;4.85;;
40591;SDS011;26301;42.832;23.918;2024-02-14T07:54:01;6.93;;;4.87;;
40591;SDS011;26301;42.832;23.918;2024-02-14T07:56:30;6.50;;;4.47;;
40591;SDS011;26301;42.832;23.918;2024-02-14T07:58:56;7.73;;;5.77;;
40591;SDS011;26301;42.832;23.918;2024-02-14T08:01:22;12.17;;;8.30;;
40591;SDS011;26301;42.832;23.918;2024-02-14T08:03:48;6.65;;;4.68;;
40591;SDS011;26301;42.832;23.918;2024-02-14T08:06:13;5.85;;;4.38;;
40591;SDS011;26301;42.832;23.918;2024-02-14T08:08:39;5.90;;;4.33;;
40591;SDS011;26301;42.832;23.918;2024-02-14T08:11:05;6.50;;;4.40;;
40591;SDS011;26301;42.832;23.918;2024-02-14T08:13:31;5.97;;;4.13;;
40591;SDS011;26301;42.832;23.918;2024-02-14T08:15:56;6.17;;;4.60;;
40591;SDS011;26301;42.832;23.918;2024-02-14T08:18:23;6.30;;;4.55;;
40591;SDS011;26301;42.832;23.918;2024-02-14T08:20:49;6.23;;;4.70;;
40591;SDS011;26301;42.832;23.918;2024-02-14T08:23:14;7.37;;;4.63;;
40591;SDS011;26301;42.832;23.918;2024-02-14T08:25:40;7.43;;;4.87;;
40591;SDS011;26301;42.832;23.918;2024-02-14T08:28:09;8.73;;;5.90;;
40591;SDS011;26301;42.832;23.918;2024-02-14T08:30:34;8.40;;;5.87;;
40591;SDS011;26301;42.832;23.918;2024-02-14T08:33:00;9.87;;;6.27;;
40591;SDS011;26301;42.832;23.918;2024-02-14T08:35:26;9.48;;;6.05;;
40591;SDS011;26301;42.832;23.918;2024-02-14T08:37:51;7.60;;;5.30;;
40591;SDS011;26301;42.832;23.918;2024-02-14T08:40:16;7.23;;;5.47;;
40591;SDS011;26301;42.832;23.918;2024-02-14T08:42:42;8.10;;;5.43;;
40591;SDS011;26301;42.832;23.918;2024-02-14T08:45:08;9.18;;;6.22;;
40591;SDS011;26301;42.832;23.918;2024-02-14T08:47:34;11.00;;;6.22;;
40591;SDS011;26301;42.832;23.918;2024-02-14T08:49:59;8.25;;;5.25;;
40591;SDS011;26301;42.832;23.918;2024-02-14T08:52:25;12.23;;;8.68;;
40591;SDS011;26301;42.832;23.918;2024-02-14T08:54:51;14.05;;;8.55;;
40591;SDS011;26301;42.832;23.918;2024-02-14T08:57:17;10.10;;;7.22;;
40591;SDS011;26301;42.832;23.918;2024-02-14T08:59:43;11.77;;;6.83;;
40591;SDS011;26301;42.832;23.918;2024-02-14T09:02:12;10.52;;;7.43;;
40591;SDS011;26301;42.832;23.918;2024-02-14T09:04:38;12.60;;;7.28;;
40591;SDS011;26301;42.832;23.918;2024-02-14T09:07:05;10.50;;;7.30;;
40591;SDS011;26301;42.832;23.918;2024-02-14T09:09:31;13.15;;;6.60;;
40591;SDS011;26301;42.832;23.918;2024-02-14T09:11:56;13.70;;;7.38;;
40591;SDS011;26301;42.832;23.918;2024-02-14T09:14:22;11.93;;;7.70;;
40591;SDS011;26301;42.832;23.918;2024-02-14T09:16:48;11.63;;;7.63;;
40591;SDS011;26301;42.832;23.918;2024-02-14T09:19:13;12.00;;;7.97;;
40591;SDS011;26301;42.832;23.918;2024-02-14T09:21:39;8.43;;;6.78;;
40591;SDS011;26301;42.832;23.918;2024-02-14T09:24:04;11.20;;;7.78;;
40591;SDS011;26301;42.832;23.918;2024-02-14T09:26:30;10.65;;;7.97;;
40591;SDS011;26301;42.832;23.918;2024-02-14T09:28:56;9.07;;;7.18;;
40591;SDS011;26301;42.832;23.918;2024-02-14T09:31:21;9.50;;;7.25;;
40591;SDS011;26301;42.832;23.918;2024-02-14T09:33:47;12.60;;;7.72;;
40591;SDS011;26301;42.832;23.918;2024-02-14T09:36:14;13.52;;;8.23;;
40591;SDS011;26301;42.832;23.918;2024-02-14T09:38:40;11.90;;;8.20;;
40591;SDS011;26301;42.832;23.918;2024-02-14T09:41:10;12.50;;;8.45;;
40591;SDS011;26301;42.832;23.918;2024-02-14T09:43:40;13.93;;;9.02;;
40591;SDS011;26301;42.832;23.918;2024-02-14T09:46:11;13.00;;;8.27;;
40591;SDS011;26301;42.832;23.918;2024-02-14T09:48:38;9.57;;;7.30;;
40591;SDS011;26301;42.832;23.918;2024-02-14T09:51:05;9.98;;;6.90;;
40591;SDS011;26301;42.832;23.918;2024-02-14T09:53:32;8.02;;;6.45;;
40591;SDS011;26301;42.832;23.918;2024-02-14T09:55:58;9.43;;;6.97;;
40591;SDS011;26301;42.832;23.918;2024-02-14T09:58:24;9.13;;;6.47;;
40591;SDS011;26301;42.832;23.918;2024-02-14T10:00:58;9.68;;;7.00;;
40591;SDS011;26301;42.832;23.918;2024-02-14T10:03:23;9.70;;;6.15;;
40591;SDS011;26301;42.832;23.918;2024-02-14T10:05:49;13.82;;;9.52;;
40591;SDS011;26301;42.832;23.918;2024-02-14T10:08:15;17.80;;;10.10;;
40591;SDS011;26301;42.832;23.918;2024-02-14T10:10:40;14.02;;;8.52;;
40591;SDS011;26301;42.832;23.918;2024-02-14T10:13:06;11.40;;;7.93;;
40591;SDS011;26301;42.832;23.918;2024-02-14T10:15:32;11.93;;;7.28;;
40591;SDS011;26301;42.832;23.918;2024-02-14T10:17:58;10.40;;;7.90;;
40591;SDS011;26301;42.832;23.918;2024-02-14T10:20:25;10.15;;;7.80;;
40591;SDS011;26301;42.832;23.918;2024-02-14T10:22:51;10.07;;;6.70;;
40591;SDS011;26301;42.832;23.918;2024-02-14T10:25:25;18.80;;;9.30;;
40591;SDS011;26301;42.832;23.918;2024-02-14T10:27:50;7.70;;;5.93;;
40591;SDS011;26301;42.832;23.918;2024-02-14T10:30:16;9.00;;;5.93;;
40591;SDS011;26301;42.832;23.918;2024-02-14T10:32:41;10.40;;;6.55;;
40591;SDS011;26301;42.832;23.918;2024-02-14T10:35:12;7.45;;;5.80;;
40591;SDS011;26301;42.832;23.918;2024-02-14T10:37:38;8.55;;;6.00;;
40591;SDS011;26301;42.832;23.918;2024-02-14T10:40:05;8.48;;;5.93;;
40591;SDS011;26301;42.832;23.918;2024-02-14T10:42:31;8.18;;;6.32;;
40591;SDS011;26301;42.832;23.918;2024-02-14T10:44:57;9.25;;;6.85;;
40591;SDS011;26301;42.832;23.918;2024-02-14T10:47:24;9.32;;;7.07;;
40591;SDS011;26301;42.832;23.918;2024-02-14T10:49:54;10.38;;;6.15;;
40591;SDS011;26301;42.832;23.918;2024-02-14T10:52:22;8.77;;;6.00;;
40591;SDS011;26301;42.832;23.918;2024-02-14T10:54:55;7.30;;;5.35;;
40591;SDS011;26301;42.832;23.918;2024-02-14T10:57:23;12.43;;;8.25;;
40591;SDS011;26301;42.832;23.918;2024-02-14T10:59:49;11.07;;;7.05;;
40591;SDS011;26301;42.832;23.918;2024-02-14T11:02:16;7.72;;;5.72;;
40591;SDS011;26301;42.832;23.918;2024-02-14T11:04:43;7.72;;;5.32;;
40591;SDS011;26301;42.832;23.918;2024-02-14T11:07:09;6.85;;;5.18;;
40591;SDS011;26301;42.832;23.918;2024-02-14T11:09:38;7.93;;;5.30;;
40591;SDS011;26301;42.832;23.918;2024-02-14T11:12:07;7.35;;;5.43;;
40591;SDS011;26301;42.832;23.918;2024-02-14T11:14:34;7.20;;;5.32;;
40591;SDS011;26301;42.832;23.918;2024-02-14T11:17:03;6.63;;;4.95;;
40591;SDS011;26301;42.832;23.918;2024-02-14T11:19:35;8.70;;;6.55;;
40591;SDS011;26301;42.832;23.918;2024-02-14T11:25:05;7.65;;;5.28;;
40591;SDS011;26301;42.832;23.918;2024-02-14T11:29:58;7.17;;;4.70;;
40591;SDS011;26301;42.832;23.918;2024-02-14T11:32:26;9.63;;;5.20;;
40591;SDS011;26301;42.832;23.918;2024-02-14T11:34:52;9.20;;;5.10;;
40591;SDS011;26301;42.832;23.918;2024-02-14T11:37:26;9.87;;;5.37;;
40591;SDS011;26301;42.832;23.918;2024-02-14T11:39:53;8.50;;;6.55;;
40591;SDS011;26301;42.832;23.918;2024-02-14T11:42:22;8.73;;;5.40;;
40591;SDS011;26301;42.832;23.918;2024-02-14T11:44:48;10.70;;;5.73;;
40591;SDS011;26301;42.832;23.918;2024-02-14T11:47:14;14.32;;;9.82;;
40591;SDS011;26301;42.832;23.918;2024-02-14T11:49:40;14.52;;;10.07;;
40591;SDS011;26301;42.832;23.918;2024-02-14T11:52:09;10.85;;;7.40;;
40591;SDS011;26301;42.832;23.918;2024-02-14T11:54:36;11.02;;;7.18;;
40591;SDS011;26301;42.832;23.918;2024-02-14T11:57:03;7.78;;;6.25;;
40591;SDS011;26301;42.832;23.918;2024-02-14T11:59:28;8.18;;;5.60;;
40591;SDS011;26301;42.832;23.918;2024-02-14T12:01:54;8.70;;;5.65;;
40591;SDS011;26301;42.832;23.918;2024-02-14T12:04:23;11.07;;;6.43;;
40591;SDS011;26301;42.832;23.918;2024-02-14T12:06:49;16.25;;;8.50;;
40591;SDS011;26301;42.832;23.918;2024-02-14T12:09:15;12.93;;;9.40;;
40591;SDS011;26301;42.832;23.918;2024-02-14T12:11:40;8.80;;;6.55;;
40591;SDS011;26301;42.832;23.918;2024-02-14T12:14:11;11.05;;;6.75;;
40591;SDS011;26301;42.832;23.918;2024-02-14T12:16:36;9.82;;;6.72;;
40591;SDS011;26301;42.832;23.918;2024-02-14T12:19:23;10.15;;;7.20;;
40591;SDS011;26301;42.832;23.918;2024-02-14T12:21:48;10.43;;;7.00;;
40591;SDS011;26301;42.832;23.918;2024-02-14T12:24:14;10.07;;;6.88;;
40591;SDS011;26301;42.832;23.918;2024-02-14T12:26:40;6.00;;;4.75;;
40591;SDS011;26301;42.832;23.918;2024-02-14T12:29:06;8.52;;;5.60;;
40591;SDS011;26301;42.832;23.918;2024-02-14T12:31:34;8.43;;;5.63;;
40591;SDS011;26301;42.832;23.918;2024-02-14T12:34:00;8.73;;;6.03;;
40591;SDS011;26301;42.832;23.918;2024-02-14T12:36:30;6.45;;;5.22;;
40591;SDS011;26301;42.832;23.918;2024-02-14T12:38:58;7.47;;;5.00;;
40591;SDS011;26301;42.832;23.918;2024-02-14T12:41:24;6.63;;;5.13;;
40591;SDS011;26301;42.832;23.918;2024-02-14T12:43:52;8.32;;;6.00;;
40591;SDS011;26301;42.832;23.918;2024-02-14T12:46:18;9.25;;;7.25;;
40591;SDS011;26301;42.832;23.918;2024-02-14T12:48:45;8.88;;;6.68;;
40591;SDS011;26301;42.832;23.918;2024-02-14T12:51:11;5.95;;;4.32;;
40591;SDS011;26301;42.832;23.918;2024-02-14T12:53:36;6.72;;;4.75;;
40591;SDS011;26301;42.832;23.918;2024-02-14T12:56:02;8.63;;;6.30;;
40591;SDS011;26301;42.832;23.918;2024-02-14T12:58:29;8.30;;;5.75;;
40591;SDS011;26301;42.832;23.918;2024-02-14T13:00:56;9.10;;;6.53;;
40591;SDS011;26301;42.832;23.918;2024-02-14T13:03:23;25.00;;;14.60;;
40591;SDS011;26301;42.832;23.918;2024-02-14T13:05:49;6.70;;;4.85;;
40591;SDS011;26301;42.832;23.918;2024-02-14T13:08:16;4.72;;;3.70;;
40591;SDS011;26301;42.832;23.918;2024-02-14T13:10:42;6.47;;;4.68;;
40591;SDS011;26301;42.832;23.918;2024-02-14T13:13:08;8.63;;;4.97;;
40591;SDS011;26301;42.832;23.918;2024-02-14T13:15:34;9.15;;;6.00;;
40591;SDS011;26301;42.832;23.918;2024-02-14T13:17:59;7.63;;;4.70;;
40591;SDS011;26301;42.832;23.918;2024-02-14T13:20:25;8.98;;;5.40;;
40591;SDS011;26301;42.832;23.918;2024-02-14T13:22:51;6.90;;;4.82;;
40591;SDS011;26301;42.832;23.918;2024-02-14T13:25:17;8.52;;;5.20;;
40591;SDS011;26301;42.832;23.918;2024-02-14T13:27:45;14.15;;;8.40;;
40591;SDS011;26301;42.832;23.918;2024-02-14T13:30:11;13.65;;;9.27;;
40591;SDS011;26301;42.832;23.918;2024-02-14T13:32:36;8.10;;;5.95;;
40591;SDS011;26301;42.832;23.918;2024-02-14T13:35:02;8.75;;;5.72;;
40591;SDS011;26301;42.832;23.918;2024-02-14T13:37:29;8.40;;;5.50;;
40591;SDS011;26301;42.832;23.918;2024-02-14T13:39:56;10.77;;;5.63;;
40591;SDS011;26301;42.832;23.918;2024-02-14T13:42:22;6.40;;;4.40;;
40591;SDS011;26301;42.832;23.918;2024-02-14T13:44:47;7.03;;;5.05;;
40591;SDS011;26301;42.832;23.918;2024-02-14T13:47:13;12.13;;;7.05;;
40591;SDS011;26301;42.832;23.918;2024-02-14T13:49:43;8.20;;;5.53;;
40591;SDS011;26301;42.832;23.918;2024-02-14T13:52:09;6.78;;;5.15;;
40591;SDS011;26301;42.832;23.918;2024-02-14T13:54:34;9.77;;;6.18;;
40591;SDS011;26301;42.832;23.918;2024-02-14T13:57:00;12.50;;;6.38;;
40591;SDS011;26301;42.832;23.918;2024-02-14T13:59:25;7.13;;;5.10;;
40591;SDS011;26301;42.832;23.918;2024-02-14T14:01:51;8.93;;;5.68;;
40591;SDS011;26301;42.832;23.918;2024-02-14T14:04:16;9.02;;;6.28;;
40591;SDS011;26301;42.832;23.918;2024-02-14T14:06:42;9.65;;;6.43;;
40591;SDS011;26301;42.832;23.918;2024-02-14T14:09:07;9.60;;;7.18;;
40591;SDS011;26301;42.832;23.918;2024-02-14T14:11:35;11.30;;;7.00;;
40591;SDS011;26301;42.832;23.918;2024-02-14T14:14:00;11.70;;;7.40;;
40591;SDS011;26301;42.832;23.918;2024-02-14T14:16:26;11.13;;;7.88;;
40591;SDS011;26301;42.832;23.918;2024-02-14T14:18:51;11.13;;;8.13;;
40591;SDS011;26301;42.832;23.918;2024-02-14T14:21:17;14.20;;;9.65;;
40591;SDS011;26301;42.832;23.918;2024-02-14T14:23:43;17.17;;;11.00;;
40591;SDS011;26301;42.832;23.918;2024-02-14T14:26:09;9.90;;;7.10;;
40591;SDS011;26301;42.832;23.918;2024-02-14T14:28:35;14.18;;;8.80;;
40591;SDS011;26301;42.832;23.918;2024-02-14T14:31:01;9.52;;;6.35;;
40591;SDS011;26301;42.832;23.918;2024-02-14T14:33:27;8.57;;;6.03;;